Date,TemperatureHighF,TemperatureAvgF,TemperatureLowF,DewpointHighF,DewpointAvgF,DewpointLowF,HumidityHigh,HumidityAvg,HumidityLow,PressureMaxIn,PressureMinIn,WindSpeedMaxMPH,WindSpeedAvgMPH,GustSpeedMaxMPH,PrecipitationSumIn
2014-1-4,17.6,17.1,16.7,14.3,14.0,13.6,88,87,85,30.12,30.11,9,7,12,0.00
2014-1-5,17.1,9.5,-2.3,14.2,2.7,-7.5,88,74,58,30.70,30.09,10,6,18,0.00
2014-1-6,15.0,3.8,-4.8,0.0,-6.5,-13.0,76,62,46,30.77,30.50,9,4,14,0.00
2014-1-7,36.9,23.2,5.9,26.9,15.7,-0.8,83,73,62,30.49,30.17,12,6,14,0.00
2014-1-8,37.6,32.1,27.4,24.7,22.4,19.9,77,67,56,30.32,30.15,7,4,11,0.00
2014-1-9,34.6,28.8,22.8,32.1,25.2,18.1,94,86,78,30.31,29.97,11,5,13,0.00
2014-1-10,40.9,35.8,29.9,39.3,33.5,27.3,95,91,81,29.96,29.59,11,5,14,0.08
2014-1-11,50.8,38.4,29.5,36.1,30.7,25.5,93,75,51,29.99,29.75,11,5,13,0.00
2014-1-12,63.7,46.0,36.5,38.3,31.7,26.7,74,59,35,29.87,29.45,16,9,18,0.00
2014-1-13,52.5,38.5,31.2,34.0,28.3,23.4,87,68,38,29.99,29.72,8,3,13,0.00
2014-1-14,45.5,38.2,27.7,31.7,22.8,13.6,78,56,28,30.34,29.84,13,6,20,0.00
2014-1-15,49.6,38.4,24.0,28.2,25.8,19.0,83,62,41,30.34,29.88,11,5,12,0.00
2014-1-16,51.5,39.9,28.1,29.6,22.4,12.8,79,53,22,30.20,29.88,18,9,21,0.00
2014-1-17,42.8,31.2,24.3,20.4,16.6,12.4,72,56,31,30.28,30.03,14,6,17,0.00
2014-1-18,52.4,38.7,24.8,28.4,23.4,18.7,82,56,35,30.19,29.90,18,7,29,0.00
2014-1-19,66.1,39.7,21.5,29.7,23.9,16.8,88,59,23,30.18,29.89,12,3,17,0.00
2014-1-20,54.3,37.6,22.4,30.1,22.3,9.5,87,57,32,30.42,29.86,13,5,18,0.00
2014-1-21,28.5,18.3,6.8,10.5,2.4,-2.9,67,51,28,30.55,30.17,10,5,17,0.00
2014-1-22,42.3,28.4,14.5,23.8,14.9,-0.4,79,59,38,30.54,30.19,10,5,16,0.00
2014-1-23,18.4,8.9,0.8,-0.8,-5.9,-8.5,72,51,34,30.92,30.54,11,4,13,0.00
2014-1-24,48.0,26.8,1.4,23.8,10.0,-5.8,74,51,31,30.80,29.98,14,7,21,0.00
2014-1-25,55.9,43.7,32.7,35.9,28.9,24.0,77,57,40,30.09,29.83,11,5,17,0.00
2014-1-26,59.9,40.4,23.4,33.6,24.7,0.3,91,58,30,30.27,29.72,15,5,20,0.00
2014-1-27,23.0,14.9,10.9,2.1,-6.4,-10.1,45,38,33,30.58,30.28,11,5,20,0.00
2014-1-28,28.8,15.2,1.9,12.2,1.2,-4.6,77,55,32,30.59,30.39,11,3,17,0.00
2014-1-29,49.0,28.4,8.4,17.7,9.6,0.6,86,51,23,30.39,29.86,19,10,23,0.00
2014-1-30,49.3,36.9,31.3,25.9,18.3,11.9,60,47,34,29.98,29.63,21,10,27,0.00
2014-1-31,31.0,24.4,21.7,19.6,16.6,11.3,90,72,58,30.04,29.85,9,5,15,0.00
2014-2-1,28.2,23.6,17.8,22.5,19.4,12.8,91,84,76,30.32,29.87,7,5,12,0.00
2014-2-2,28.5,18.3,11.5,13.2,9.7,6.5,85,70,50,30.47,30.32,6,3,8,0.00
2014-2-3,38.9,25.2,8.5,17.7,11.0,4.1,86,59,32,30.37,30.16,10,5,14,0.00
2014-2-4,31.1,23.4,9.5,24.7,20.3,6.4,92,88,49,30.34,29.96,9,5,17,0.03
2014-2-5,9.4,4.9,0.6,6.3,-0.3,-4.3,87,79,72,30.78,30.34,10,6,16,0.00
2014-2-6,9.5,5.7,1.5,-1.1,-2.9,-5.2,77,68,55,30.79,30.55,4,1,7,0.00
2014-2-7,16.2,11.4,5.6,13.5,5.4,-1.2,89,77,68,30.55,30.26,7,4,9,0.00
2014-2-8,27.2,23.3,16.2,24.9,20.5,13.5,93,89,86,30.25,30.08,12,4,15,0.00
2014-2-9,26.3,20.3,12.1,24.6,16.6,8.0,93,86,79,30.48,30.20,7,4,11,0.00
2014-2-10,15.5,12.2,9.4,8.7,6.7,4.9,88,78,70,30.56,30.46,7,3,9,0.00
2014-2-11,21.1,11.2,-1.2,9.2,4.1,-5.6,87,73,57,30.55,30.30,7,2,8,0.01
2014-2-12,36.3,24.5,8.7,30.4,19.6,2.8,90,82,73,30.30,30.02,9,3,13,0.19
2014-2-13,43.1,32.3,22.1,32.4,27.2,19.6,91,82,63,30.02,29.74,9,3,9,0.11
2014-2-14,46.2,37.3,24.4,36.1,30.7,21.4,91,78,66,30.12,29.71,9,4,11,0.00
2014-2-15,41.4,34.4,29.6,34.4,30.1,25.4,89,84,76,30.11,30.03,5,0,5,0.00
2014-2-16,56.8,40.4,24.2,37.3,31.2,22.0,93,72,44,30.14,29.74,12,6,15,0.00
2014-2-17,59.7,46.6,37.7,37.1,31.8,27.3,84,59,30,30.09,29.72,17,6,25,0.00
2014-2-18,70.7,50.2,36.0,39.0,31.3,26.9,71,51,24,29.99,29.74,15,6,18,0.00
2014-2-19,57.6,44.6,28.3,42.0,30.7,24.0,88,61,35,30.00,29.48,12,4,17,0.00
2014-2-20,57.5,44.3,32.3,55.6,32.9,18.6,94,68,31,29.96,29.29,20,11,25,0.08
2014-2-21,60.7,39.5,19.6,26.8,22.4,15.7,89,56,24,29.98,29.88,13,4,20,0.00
2014-2-22,60.2,39.1,22.0,33.1,26.1,18.7,88,65,27,30.03,29.87,7,3,11,0.00
2014-2-23,39.1,30.7,21.8,26.4,19.0,13.9,81,62,46,30.36,30.03,9,5,14,0.00
2014-2-24,47.2,31.0,18.2,29.0,19.6,12.8,81,64,43,30.37,30.09,11,4,14,0.00
2014-2-25,29.5,21.6,16.7,20.2,15.5,6.7,86,77,59,30.58,30.27,8,5,11,0.00
2014-2-26,36.9,22.6,-1.4,16.6,12.4,-5.1,88,67,37,30.56,30.12,7,3,14,0.00
2014-2-27,46.6,34.3,17.7,20.2,16.8,12.3,83,51,29,30.16,29.80,11,7,17,0.00
2014-2-28,48.1,38.9,31.4,38.8,28.8,17.3,88,67,52,30.04,29.66,12,6,15,0.00
2014-3-1,31.3,19.9,10.5,23.3,16.3,7.4,90,86,72,30.41,30.04,8,6,15,0.00
2014-3-2,5.0,4.9,4.7,-2.5,-2.8,-3.1,71,70,69,30.65,30.64,5,4,9,0.00
2014-3-3,15.9,7.1,-4.0,3.0,-3.1,-10.1,77,63,48,30.68,30.32,10,3,11,0.01
2014-3-4,33.5,23.0,9.4,25.3,15.0,0.5,80,71,64,30.32,30.04,12,6,16,0.03
2014-3-5,36.9,30.3,26.6,28.7,25.7,22.7,91,83,70,30.33,30.05,8,3,12,0.05
2014-3-6,43.2,32.6,25.6,36.5,29.6,23.9,94,89,75,30.32,29.93,11,5,14,0.00
2014-3-7,58.5,43.3,33.0,42.7,35.9,26.9,89,76,54,30.08,29.78,13,7,18,0.00
2014-3-8,42.4,31.2,22.0,26.7,22.1,18.4,87,70,42,30.39,30.09,9,5,18,0.00
2014-3-9,63.1,41.0,18.7,38.2,27.6,14.5,89,63,34,30.38,30.02,15,6,18,0.00
2014-3-10,78.0,53.9,29.4,41.0,32.7,23.6,83,49,23,30.03,29.65,10,4,12,0.00
2014-3-11,69.4,51.7,34.2,50.7,39.0,31.0,89,64,34,30.09,29.39,17,10,26,0.00
2014-3-12,56.9,40.9,30.1,34.5,28.6,23.3,89,66,29,30.30,30.09,12,5,16,0.00
2014-3-13,31.7,30.5,28.1,25.0,23.9,22.4,79,76,74,30.19,30.15,0,0,0,0.00
2014-3-16,45.9,38.9,22.9,21.4,18.4,14.6,71,45,34,30.23,30.12,10,5,15,0.00
2014-3-17,58.2,39.4,19.9,34.0,24.8,14.1,82,59,38,30.12,29.47,17,9,23,0.00
2014-3-18,61.8,48.7,35.5,37.3,32.1,29.0,80,54,37,29.85,29.33,17,12,22,0.00
2014-3-19,57.3,41.9,29.4,31.1,28.0,23.3,84,61,31,30.22,29.87,14,6,21,0.00
2014-3-20,73.0,50.6,29.3,33.7,27.4,22.2,81,47,16,30.13,29.83,16,5,22,0.00
2014-3-21,63.9,54.8,45.8,36.0,31.1,25.0,61,41,27,30.13,29.65,14,7,19,0.00
2014-3-22,48.7,37.7,27.7,30.7,20.2,8.7,77,52,28,30.48,30.13,9,6,15,0.00
2014-3-23,45.8,31.1,16.4,20.6,17.5,12.9,88,60,35,30.58,30.29,7,3,13,0.00
2014-3-24,46.5,34.7,23.4,32.7,23.0,16.0,77,63,43,30.32,30.20,8,3,14,0.00
2014-3-25,47.4,34.5,20.4,26.8,18.2,12.9,81,55,29,30.49,30.18,7,3,9,0.00
2014-3-26,53.5,40.6,32.7,41.5,28.5,17.6,91,63,42,30.18,29.59,28,14,34,0.04
2014-3-27,70.4,55.1,36.2,54.2,42.6,29.7,88,65,36,29.86,29.35,23,12,30,0.00
2014-3-28,57.2,40.0,29.9,37.7,30.3,25.5,85,70,47,30.17,29.85,8,3,14,0.00
2014-3-29,64.2,43.4,23.6,38.4,30.9,21.1,92,66,33,30.36,30.13,9,2,11,0.00
2014-3-30,75.4,60.2,46.0,40.2,36.5,31.0,61,43,27,30.13,29.66,25,16,33,0.00
2014-3-31,73.1,61.0,39.9,50.0,36.7,24.2,71,43,21,30.01,29.52,21,14,27,0.00
2014-4-1,56.5,42.4,26.4,33.4,27.4,19.9,79,57,38,30.11,29.90,10,4,14,0.00
2014-4-2,71.0,51.5,43.4,54.1,43.8,30.2,93,76,51,29.92,29.60,12,5,15,0.00
2014-4-3,47.9,44.3,37.2,46.3,42.1,33.3,95,92,84,29.98,29.55,12,6,16,0.00
2014-4-4,54.1,40.3,31.0,33.5,29.3,25.0,89,68,35,30.21,29.98,12,5,16,0.00
2014-4-5,64.0,46.8,25.5,33.6,28.8,21.6,89,55,28,30.17,29.96,12,5,17,0.00
2014-4-6,59.2,50.5,43.2,44.8,40.4,30.9,90,69,46,30.02,29.80,15,2,18,0.00
2014-4-7,58.9,47.4,33.7,47.1,40.0,30.3,91,76,54,29.98,29.77,14,4,15,0.02
2014-4-8,64.3,49.1,33.2,38.3,30.4,20.0,87,54,20,30.12,29.98,12,6,17,0.00
2014-4-9,83.2,63.3,31.4,42.8,35.2,19.4,64,38,22,30.12,29.73,20,11,25,0.00
2014-4-10,71.0,61.0,47.8,46.0,39.1,31.5,75,46,30,29.94,29.63,12,6,20,0.00
2014-4-11,81.0,62.9,44.9,56.6,40.0,29.0,76,45,27,30.00,29.80,12,4,14,0.00
2014-4-12,87.9,71.0,59.5,62.7,58.5,54.8,90,68,37,29.81,29.42,22,13,27,0.00
2014-4-13,77.8,57.9,33.4,63.5,50.5,30.5,90,77,56,29.89,29.34,19,11,25,0.00
2014-4-14,48.6,36.8,29.6,31.2,22.1,14.1,91,60,26,30.25,29.84,12,8,19,0.00
2014-4-15,63.5,44.2,19.1,27.1,20.4,14.0,85,45,20,30.25,29.91,15,5,19,0.00
2014-4-16,72.8,57.1,45.5,39.7,29.8,19.7,63,37,23,30.06,29.78,25,13,35,0.00
2014-4-17,52.4,40.7,34.5,36.6,32.0,28.3,85,72,52,30.32,30.07,7,2,10,0.03
2014-4-18,71.2,49.1,25.9,47.0,37.2,23.6,94,67,40,30.33,30.07,14,5,16,0.00
2014-4-19,80.6,64.9,50.7,53.2,47.9,40.6,73,56,38,30.10,29.92,23,12,27,0.00
2014-4-20,70.6,64.2,57.5,62.3,54.8,49.8,86,72,61,30.01,29.88,13,8,18,0.00
2014-4-21,80.1,62.4,47.6,59.3,48.6,32.2,94,66,29,30.06,29.91,8,3,14,0.00
2014-4-22,76.7,59.4,41.7,39.2,33.7,29.0,63,41,22,30.11,29.89,10,4,13,0.00
2014-4-23,86.5,69.1,53.6,57.5,45.5,35.3,68,44,29,29.89,29.48,24,12,33,0.02
2014-4-24,68.0,59.1,44.1,59.5,47.8,37.3,92,69,35,29.86,29.48,19,8,25,0.24
2014-4-25,82.0,62.1,37.0,45.4,40.9,33.3,89,52,23,29.92,29.70,19,8,27,0.00
2014-4-26,87.7,73.4,59.4,63.8,52.7,41.2,71,49,42,29.73,29.36,21,14,27,0.00
2014-4-27,79.4,70.1,56.5,65.1,52.2,35.5,90,58,21,29.40,29.10,23,13,31,0.22
2014-4-28,58.0,52.6,45.1,43.6,39.6,37.4,78,62,48,29.56,29.23,21,13,31,0.00
2014-4-29,48.4,43.8,39.4,40.7,37.9,36.3,90,80,66,29.99,29.55,16,11,25,0.11
2014-4-30,56.2,47.1,38.2,37.7,33.1,27.9,85,61,36,30.09,29.99,14,8,19,0.00
2014-5-1,61.9,49.2,35.1,37.9,33.0,28.6,78,56,35,30.08,29.98,11,6,17,0.00
2014-5-2,73.8,51.6,28.2,39.8,31.9,25.4,92,54,21,30.04,29.84,8,2,13,0.00
2014-5-3,90.8,72.1,45.3,44.7,38.0,31.9,67,32,16,29.89,29.74,12,5,19,0.00
2014-5-4,100.5,78.6,59.2,44.7,38.3,30.5,51,27,9,29.79,29.51,14,8,19,0.00
2014-5-5,85.2,72.2,57.2,56.5,47.0,35.1,71,42,27,29.61,29.53,8,4,11,0.00
2014-5-6,102.1,76.0,51.4,62.4,52.1,25.9,94,54,7,29.61,29.34,17,7,28,0.00
2014-5-7,95.5,79.2,65.9,65.1,61.4,56.0,84,58,27,29.57,29.41,18,12,24,0.01
2014-5-8,81.1,70.8,57.3,63.2,54.8,42.6,85,60,32,29.78,29.54,15,9,21,0.00
2014-5-9,77.1,60.2,45.9,47.8,43.6,40.3,82,57,30,29.92,29.75,8,3,12,0.00
2014-5-10,90.0,71.9,54.0,63.9,54.6,44.0,87,59,21,29.80,29.56,13,6,19,0.02
2014-5-11,90.4,77.5,65.8,68.0,64.0,60.2,86,65,39,29.64,29.41,22,14,29,0.03
2014-5-12,67.0,53.1,45.8,64.7,49.0,39.7,94,86,76,30.13,29.51,14,8,16,1.48
2014-5-13,63.4,52.0,41.7,41.2,38.1,34.4,85,62,36,30.29,30.14,9,5,17,0.00
2014-5-14,66.4,53.6,39.3,44.6,37.2,30.0,89,59,28,30.30,30.12,7,2,12,0.00
2014-5-15,63.2,53.4,40.1,41.3,36.1,28.5,84,55,32,30.22,30.09,7,3,10,0.00
2014-5-16,63.4,48.6,36.7,41.6,37.0,33.4,89,66,43,30.13,29.99,11,5,13,0.00
2014-5-17,64.3,52.3,37.3,42.6,39.4,34.6,91,65,41,30.18,30.09,9,3,13,0.00
2014-5-18,76.0,61.8,44.8,59.0,51.3,38.8,91,70,52,30.13,29.82,13,7,20,0.02
2014-5-19,88.9,75.3,63.7,64.0,60.5,57.4,82,62,42,29.82,29.54,21,15,27,0.00
2014-5-20,94.3,79.8,66.4,66.4,61.0,58.4,78,55,31,29.72,29.61,16,9,23,0.00
2014-5-21,89.6,77.4,68.3,68.5,63.5,59.1,82,63,43,29.90,29.72,10,4,13,0.10
2014-5-22,83.2,73.8,63.5,69.1,65.1,59.2,89,75,59,30.01,29.88,10,4,14,0.03
2014-5-23,70.9,65.9,60.5,66.3,62.5,57.1,94,89,79,30.04,29.96,7,3,9,0.98
2014-5-24,82.1,70.4,63.1,69.0,64.9,61.3,95,84,58,30.00,29.84,9,3,13,0.07
2014-5-25,82.4,68.6,63.3,70.6,64.5,61.0,94,87,65,29.94,29.82,10,4,13,0.29
2014-5-26,80.8,70.7,61.6,67.9,63.5,59.8,95,80,52,29.95,29.84,9,4,11,0.00
2014-5-27,80.6,69.1,59.2,67.8,63.4,56.9,94,83,62,29.93,29.85,6,2,8,0.00
2014-5-28,87.6,72.8,56.7,70.0,63.0,55.0,95,74,47,29.95,29.84,6,1,8,0.00
2014-5-29,87.2,74.9,61.7,70.0,64.6,60.0,95,73,46,29.90,29.81,6,2,10,0.00
2014-5-30,83.1,73.1,61.2,68.7,65.2,59.1,95,78,57,29.94,29.86,9,4,12,0.00
2014-5-31,85.4,73.4,60.7,69.1,65.1,59.0,95,77,53,29.98,29.83,8,3,10,0.00
2014-6-1,87.9,75.6,65.4,71.2,66.9,62.4,93,77,53,29.87,29.60,16,8,22,0.70
2014-6-2,81.9,72.9,62.5,71.8,66.9,60.7,95,82,66,29.91,29.73,7,2,11,0.00
2014-6-3,90.3,79.9,70.5,73.9,70.2,68.0,94,74,52,29.90,29.56,15,8,21,0.00
2014-6-4,89.6,80.0,70.6,74.7,70.4,66.4,87,73,56,29.70,29.51,15,6,21,0.00
2014-6-5,80.9,73.3,63.9,70.4,67.0,61.2,94,82,64,29.82,29.52,13,5,22,1.03
2014-6-6,80.7,71.2,63.5,71.4,67.2,61.6,95,87,70,29.90,29.73,10,3,11,0.05
2014-6-7,78.3,69.7,63.0,66.8,63.5,60.9,95,82,59,29.94,29.63,13,4,14,1.56
2014-6-8,78.3,67.7,60.5,64.0,60.8,58.2,92,80,55,29.99,29.81,8,4,12,0.00
2014-6-9,67.4,62.8,60.8,65.0,60.8,58.6,95,93,88,29.83,29.57,10,5,14,2.27
2014-6-10,78.3,67.4,60.4,64.6,61.0,58.5,95,81,57,29.82,29.70,6,3,13,0.42
2014-6-11,87.6,72.1,54.8,68.8,62.5,53.1,95,74,50,29.83,29.62,11,4,16,0.00
2014-6-12,74.3,65.6,55.9,66.9,58.4,53.3,93,79,53,30.01,29.69,13,3,16,0.27
2014-6-13,80.7,67.3,50.7,58.5,54.4,49.0,95,67,41,30.06,29.82,10,4,13,0.00
2014-6-14,89.5,78.3,65.5,71.9,66.2,57.7,82,67,49,29.82,29.47,19,13,26,0.00
2014-6-15,83.0,71.6,61.6,70.0,65.3,59.7,95,82,59,29.84,29.47,18,4,21,0.73
2014-6-16,90.6,80.5,71.0,75.4,71.8,69.2,94,76,58,29.84,29.61,20,12,26,0.00
2014-6-17,95.0,83.7,74.3,75.1,71.5,67.7,81,68,51,29.70,29.60,18,14,22,0.00
2014-6-18,93.0,83.4,74.9,74.9,71.4,68.5,82,68,51,29.75,29.67,17,12,22,0.00
2014-6-19,89.4,80.4,73.9,72.2,68.2,62.7,85,68,46,29.91,29.72,10,6,17,0.00
2014-6-20,94.9,81.3,68.4,72.4,67.9,63.1,94,67,39,29.97,29.82,12,5,17,0.00
2014-6-21,94.6,81.9,69.1,68.4,65.7,60.8,89,61,33,29.91,29.71,10,5,16,0.00
2014-6-22,95.1,79.6,63.9,71.4,67.1,61.0,94,68,42,29.82,29.61,11,6,13,1.21
2014-6-23,83.6,72.2,64.9,69.5,65.6,62.9,95,81,56,29.94,29.75,7,2,9,0.14
2014-6-24,83.9,69.2,62.2,69.3,64.1,60.3,95,85,55,29.98,29.91,8,2,13,0.35
2014-6-25,87.5,73.1,58.7,70.0,65.3,57.0,96,79,52,29.98,29.84,8,3,13,0.01
2014-6-26,81.0,74.0,68.1,73.0,69.3,64.1,93,86,67,29.89,29.69,13,6,16,0.13
2014-6-27,85.5,76.8,72.1,74.2,70.8,68.5,89,82,66,29.74,29.59,16,10,22,0.06
2014-6-28,80.7,71.8,62.6,71.4,66.2,60.5,94,83,61,29.83,29.62,13,4,19,0.66
2014-6-29,89.5,76.9,68.6,78.6,72.3,66.1,95,86,69,29.92,29.68,17,6,18,0.05
2014-6-30,95.5,83.9,70.2,79.6,73.7,67.1,91,73,53,29.74,29.58,18,9,25,0.60
2014-7-1,84.6,74.4,63.8,67.8,63.4,57.5,93,71,47,29.99,29.71,7,2,9,0.33
2014-7-2,78.3,68.3,55.9,60.1,55.6,52.7,93,66,42,30.13,30.00,8,3,13,0.00
2014-7-3,83.1,68.1,51.5,60.2,55.6,49.5,95,68,42,30.19,30.07,7,3,10,0.00
2014-7-4,86.7,74.5,61.4,67.1,62.4,57.1,87,68,49,30.18,30.01,11,6,15,0.00
2014-7-5,91.5,77.9,71.4,72.4,69.6,66.9,89,77,53,30.04,29.91,15,10,20,0.00
2014-7-6,97.8,89.5,78.7,75.9,71.7,68.8,80,57,40,29.82,29.72,10,6,14,0.00
2014-7-7,101.9,84.5,68.2,74.3,67.5,60.4,89,60,32,29.78,29.62,14,6,19,0.00
2014-7-8,86.5,75.3,64.3,65.6,62.0,56.8,91,66,39,29.98,29.73,9,3,16,0.03
2014-7-9,89.9,77.0,62.6,65.0,62.1,59.6,93,64,37,30.02,29.86,8,3,9,0.00
2014-7-10,86.2,76.8,64.8,71.3,67.0,61.4,93,73,58,29.95,29.85,11,8,14,0.80
2014-7-11,94.4,80.4,68.5,73.5,68.6,65.5,91,70,44,29.96,29.88,14,7,16,0.00
2014-7-12,94.5,82.9,70.0,71.8,67.6,63.8,82,61,42,29.97,29.85,14,7,17,0.00
2014-7-13,86.0,78.1,70.2,73.2,67.4,59.5,88,70,55,29.94,29.87,8,3,11,0.00
2014-7-14,88.6,75.2,63.9,71.7,64.1,54.1,95,71,45,30.09,29.90,7,2,11,0.00
2014-7-15,79.8,65.3,51.3,57.5,52.5,48.8,92,67,38,30.14,29.97,6,1,8,0.00
2014-7-16,70.8,63.9,56.8,59.5,56.1,52.5,92,76,65,30.03,29.97,8,3,10,0.00
2014-7-17,69.1,63.3,56.1,62.7,59.3,53.8,94,87,76,30.04,29.98,7,2,9,0.09
2014-7-18,76.8,67.0,60.6,61.7,59.9,57.1,94,79,57,30.04,29.93,9,4,12,0.00
2014-7-19,82.4,70.0,56.6,66.8,62.2,54.3,94,78,58,29.98,29.87,11,5,13,0.01
2014-7-20,90.7,77.3,65.0,75.7,69.0,62.1,91,77,60,29.90,29.76,14,9,17,0.00
2014-7-21,96.2,83.4,72.2,78.9,73.6,70.0,93,74,48,29.89,29.81,13,8,18,0.00
2014-7-22,99.7,86.2,74.8,77.8,74.5,72.1,92,70,43,29.95,29.87,9,4,10,0.00
2014-7-23,87.8,78.7,70.1,73.3,69.2,64.2,92,74,48,30.08,29.96,7,3,11,0.00
2014-7-24,90.1,78.4,64.4,72.0,67.7,61.0,93,71,53,30.04,29.83,11,6,15,0.00
2014-7-25,102.9,87.5,73.1,73.9,69.3,62.6,87,59,31,29.84,29.64,15,9,20,0.00
2014-7-26,102.0,86.7,74.2,77.8,68.7,65.1,74,57,33,29.77,29.67,11,5,15,0.00
2014-7-27,88.5,79.1,67.7,74.9,66.3,55.4,91,67,33,30.08,29.77,17,2,17,0.38
2014-7-28,85.3,72.6,60.8,65.8,60.8,57.2,91,69,42,30.22,30.06,7,2,11,0.00
2014-7-29,88.0,74.4,59.9,66.0,61.1,56.6,91,65,45,30.12,29.95,10,3,13,0.00
2014-7-30,70.8,66.4,59.4,64.9,61.5,57.4,93,84,70,30.07,29.98,6,2,8,0.37
2014-7-31,83.5,68.8,54.9,65.2,58.6,53.2,96,74,40,30.10,29.97,4,1,6,0.01
2014-8-1,89.3,73.8,59.6,65.8,59.8,51.3,93,66,31,30.01,29.92,8,2,10,0.00
2014-8-2,90.0,75.2,58.7,69.2,64.0,56.0,95,71,41,30.06,29.98,7,2,9,0.00
2014-8-3,92.8,78.4,63.8,68.6,63.8,60.2,93,65,35,30.06,29.92,9,4,15,0.00
2014-8-4,94.4,79.9,67.1,68.2,64.6,61.9,86,63,36,30.00,29.89,11,4,14,0.00
2014-8-5,95.5,80.4,66.1,68.2,64.9,62.6,90,63,36,29.98,29.88,10,5,13,0.00
2014-8-6,97.3,82.3,70.1,72.1,67.5,63.9,90,64,36,29.90,29.69,15,7,19,0.18
2014-8-7,87.0,76.4,68.4,73.1,69.6,64.6,91,80,60,29.85,29.76,13,3,14,0.17
2014-8-8,90.1,78.3,69.3,73.5,70.2,66.5,94,78,54,29.90,29.80,9,2,12,0.04
2014-8-9,91.6,79.1,69.4,74.9,71.1,67.0,95,78,53,29.95,29.82,8,4,13,0.32
2014-8-10,84.1,74.2,67.0,72.9,67.8,64.8,94,81,61,30.01,29.84,12,3,13,0.81
2014-8-11,83.8,73.4,62.4,70.5,63.0,56.5,94,73,40,30.08,30.00,8,3,11,0.00
2014-8-12,83.8,69.6,54.9,63.2,57.6,52.5,93,69,40,30.12,29.98,5,1,10,0.00
2014-8-13,87.3,72.4,56.6,66.5,60.6,54.0,93,69,45,30.09,29.95,7,3,9,0.00
2014-8-14,89.7,78.8,64.1,70.3,65.8,60.1,88,66,49,29.99,29.82,12,6,14,0.00
2014-8-15,92.2,79.5,71.3,74.6,68.4,65.4,83,70,45,29.85,29.71,14,6,16,0.01
2014-8-16,92.1,79.5,67.3,73.0,68.6,63.9,91,72,48,29.82,29.72,5,2,8,0.00
2014-8-17,94.2,79.5,65.2,73.5,69.2,63.0,94,73,46,29.93,29.76,16,2,25,0.45
2014-8-18,93.8,83.2,65.5,74.5,70.2,63.7,94,66,49,29.96,29.67,11,4,16,0.28
2014-8-19,96.3,82.4,65.2,71.4,66.3,59.8,90,61,35,29.78,29.66,10,4,13,0.00
2014-8-20,95.5,83.2,71.9,73.2,69.7,66.9,86,65,46,29.75,29.66,14,9,18,0.00
2014-8-21,99.3,86.0,75.3,72.7,69.7,67.6,79,60,40,29.79,29.71,15,11,22,0.00
2014-8-25,100.8,86.8,74.0,71.2,67.6,64.9,79,55,34,29.90,29.75,8,5,13,0.00
2014-8-26,94.6,79.0,68.4,71.5,66.8,62.0,84,68,45,30.02,29.90,11,4,12,0.00
2014-8-27,89.4,81.2,69.6,69.7,67.9,65.7,90,65,48,30.02,29.87,6,2,9,0.00
2014-8-28,81.1,76.0,68.5,72.5,67.9,62.9,91,77,61,29.87,29.73,11,6,18,0.70
2014-8-29,86.2,73.8,66.0,71.1,66.7,63.4,93,80,53,29.82,29.73,9,4,13,0.09
2014-8-30,92.4,75.7,61.5,70.5,64.3,59.3,95,72,36,29.89,29.78,4,1,8,0.00
2014-8-31,97.1,80.8,67.6,73.4,67.3,62.7,91,67,37,29.80,29.50,21,9,30,0.08
2014-9-1,79.1,70.8,62.2,71.5,65.7,60.1,93,84,71,29.83,29.65,18,4,28,0.71
2014-9-2,87.2,75.7,68.9,72.7,68.7,66.5,95,81,54,29.93,29.80,8,3,9,0.31
2014-9-3,94.7,81.5,69.9,75.5,70.9,67.5,92,73,48,29.84,29.67,17,10,22,0.00
2014-9-4,94.8,83.9,74.9,70.3,66.9,63.1,75,58,38,29.83,29.71,17,11,23,0.00
2014-9-5,79.1,72.1,66.6,67.2,62.2,57.4,86,71,59,30.06,29.84,8,5,16,0.00
2014-9-6,75.0,66.6,52.7,56.2,51.9,49.5,89,62,41,30.20,30.14,5,2,8,0.04
2014-9-7,80.1,63.8,47.8,58.3,52.5,46.0,95,71,39,30.18,29.97,7,2,10,0.00
2014-9-8,90.1,74.1,56.5,70.8,64.1,52.5,94,73,50,30.01,29.75,15,7,20,0.00
2014-9-9,96.5,83.6,72.1,71.8,68.4,65.6,88,63,39,29.79,29.46,20,12,27,0.00
2014-9-10,83.1,67.7,59.3,69.4,63.4,56.7,94,86,61,29.96,29.46,16,5,24,0.20
2014-9-11,66.4,60.5,56.2,57.8,54.1,50.8,89,80,70,30.21,29.97,6,4,11,0.00
2014-9-12,56.3,51.6,48.6,51.1,47.2,43.7,93,85,77,30.42,30.18,6,4,13,0.08
2014-9-13,67.9,52.3,35.0,48.7,41.5,33.2,95,70,38,30.42,30.18,8,3,13,0.00
2014-9-14,81.1,64.3,45.9,62.9,54.5,43.7,93,72,53,30.21,29.96,12,6,16,0.00
2014-9-15,76.4,67.5,61.4,66.7,61.8,54.4,91,82,71,30.17,29.93,11,5,13,0.00
2014-9-16,78.6,65.6,54.5,64.2,56.8,50.3,89,74,58,30.18,29.91,7,4,10,0.00
2014-9-17,91.7,76.6,65.4,72.2,67.7,63.1,95,76,47,29.91,29.70,9,5,14,0.00
2014-9-18,87.5,74.3,66.2,68.5,64.3,59.0,93,74,40,29.91,29.75,13,8,21,0.00
2014-9-19,91.0,75.0,61.1,70.7,65.5,59.4,95,75,43,29.91,29.80,11,5,16,0.00
2014-9-20,91.0,76.5,66.8,71.1,67.1,64.7,93,76,44,29.94,29.82,14,6,26,0.62
2014-9-21,77.8,67.8,52.9,67.6,56.8,47.6,94,71,36,30.21,29.94,6,2,9,0.00
2014-9-22,78.4,62.5,46.8,55.6,49.8,44.6,94,67,35,30.29,30.12,5,2,8,0.00
2014-9-23,79.8,67.5,57.9,57.8,54.8,52.1,84,66,46,30.14,29.97,14,7,22,0.00
2014-9-24,77.9,65.6,58.4,63.1,58.9,55.2,92,80,59,30.10,30.03,11,5,17,0.11
2014-9-25,86.3,70.2,57.4,62.1,56.7,52.7,85,65,41,30.14,30.03,9,4,11,0.00
2014-9-26,83.9,69.0,56.0,59.6,56.2,52.8,90,67,39,30.08,29.99,10,4,15,0.00
2014-9-27,84.3,69.7,55.3,61.6,57.5,52.7,93,68,42,30.05,29.93,12,5,17,0.00
2014-9-28,85.0,71.7,57.1,62.1,57.6,53.6,91,64,39,30.06,29.97,9,3,15,0.00
2014-9-29,86.2,70.3,54.4,64.6,57.9,52.3,95,68,39,30.02,29.83,8,3,11,0.00
2014-9-30,84.9,73.4,62.1,65.4,61.4,57.4,87,68,46,29.87,29.59,14,8,18,0.00
2014-10-1,88.4,74.1,64.9,68.3,64.4,56.3,92,74,36,29.66,29.55,12,4,13,0.07
2014-10-2,67.0,60.6,51.7,62.8,56.2,48.4,95,86,73,29.91,29.58,10,4,15,0.01
2014-10-3,58.0,48.8,38.6,47.5,37.8,31.5,95,69,37,30.28,29.91,13,5,21,0.02
2014-10-4,70.8,50.5,31.5,41.0,34.5,28.4,92,60,27,30.18,29.83,4,1,8,0.00
2014-10-5,77.9,61.9,44.5,51.2,44.7,38.8,86,57,31,29.84,29.75,11,3,16,0.00
2014-10-6,82.4,62.2,46.7,53.8,47.9,43.8,93,65,29,29.86,29.65,9,2,14,0.01
2014-10-7,84.6,70.0,54.9,53.2,50.3,47.6,84,53,29,29.96,29.70,6,2,10,0.00
2014-10-8,81.6,67.1,54.3,64.3,54.3,45.3,87,65,41,30.01,29.83,12,6,16,0.00
2014-10-9,81.1,68.9,57.5,67.4,63.7,55.6,94,84,60,29.93,29.79,8,4,13,0.09
2014-10-10,57.5,50.0,45.3,55.8,47.0,39.6,94,89,76,30.19,29.89,8,4,14,1.13
2014-10-11,61.7,50.4,43.1,46.4,42.5,39.8,91,76,47,30.22,30.00,4,1,6,0.00
2014-10-12,65.7,52.8,40.6,54.1,46.9,38.3,94,81,61,30.00,29.60,14,5,20,0.22
2014-10-13,61.3,54.5,51.5,53.1,48.6,41.0,95,82,60,29.85,29.61,11,6,19,0.65
2014-10-14,66.3,54.1,43.8,46.2,41.4,39.1,85,64,38,30.02,29.84,11,6,15,0.00
2014-10-15,73.7,53.6,36.9,48.0,42.1,34.8,93,69,35,30.11,29.88,6,1,7,0.00
2014-10-16,55.7,52.5,51.5,45.7,45.0,44.2,79,75,69,29.88,29.79,6,2,8,0.00
2014-10-19,68.2,61.9,56.3,54.8,53.2,51.7,87,74,56,30.00,29.98,8,2,9,0.00
2014-10-20,78.5,60.2,45.5,60.3,49.9,43.5,95,74,34,30.05,29.98,6,1,9,0.00
2014-10-21,80.5,61.5,42.8,61.6,52.7,40.9,95,76,46,30.08,29.94,10,4,13,0.00
2014-10-22,79.5,65.2,55.6,59.6,56.5,53.6,94,76,44,30.06,29.96,16,6,19,0.07
2014-10-23,72.8,63.2,57.8,62.7,58.9,55.4,94,86,70,30.05,29.96,6,3,8,0.01
2014-10-24,82.8,66.0,56.5,65.6,59.9,54.8,95,82,54,30.01,29.91,9,4,14,0.01
2014-10-25,90.8,68.6,49.1,66.1,57.3,47.4,96,72,32,30.02,29.86,10,2,12,0.00
2014-10-26,88.5,74.0,61.0,60.3,57.1,52.1,83,58,37,29.86,29.52,20,10,29,0.00
2014-10-27,70.6,64.0,53.7,55.3,49.8,40.9,72,60,46,29.96,29.46,10,4,16,0.00
2014-10-28,67.6,50.6,35.8,44.3,38.1,33.1,93,66,34,30.17,29.97,7,1,8,0.00
2014-10-29,71.4,50.6,32.0,41.2,35.6,29.4,93,62,29,30.25,30.05,9,3,13,0.00
2014-10-30,69.9,54.2,42.2,41.1,37.6,34.9,77,55,33,30.26,29.99,11,4,17,0.00
2014-10-31,49.9,39.8,22.8,39.0,27.6,18.2,84,64,34,30.51,30.27,7,4,13,0.00
2014-11-1,54.2,40.6,22.7,25.4,20.8,16.9,85,50,23,30.47,30.17,13,7,19,0.00
2014-11-2,63.0,53.2,45.4,47.5,37.6,25.4,71,56,41,30.17,29.92,23,16,29,0.00
2014-11-3,66.1,56.5,46.7,57.3,49.1,40.2,91,76,65,30.11,29.86,21,13,27,0.08
2014-11-4,52.2,45.1,39.2,42.9,39.2,36.5,91,80,62,30.27,30.11,8,2,10,0.00
2014-11-5,69.2,49.6,32.2,41.6,36.6,30.1,94,66,32,30.27,30.10,11,3,14,0.01
2014-11-6,58.8,47.7,35.7,35.3,31.0,27.2,76,55,30,30.43,30.26,7,3,11,0.00
2014-11-7,68.9,52.6,36.8,45.9,36.6,27.8,75,56,40,30.26,29.80,22,8,28,0.00
2014-11-8,59.0,46.7,33.5,41.9,33.7,26.8,82,62,36,30.26,30.00,8,4,12,0.00
2014-11-9,68.0,51.6,38.3,46.2,39.0,29.2,80,63,43,30.05,29.56,14,7,19,0.00
2014-11-10,72.0,52.3,29.3,47.9,40.2,18.9,78,65,38,29.95,29.29,17,11,25,0.00
2014-11-11,32.9,25.7,18.9,18.9,12.5,7.7,74,58,35,30.52,29.96,13,7,28,0.00
2014-11-12,24.4,20.5,14.7,9.9,4.9,1.6,73,51,41,30.68,30.53,10,6,16,0.00
2014-11-13,29.7,19.8,11.4,11.6,7.8,4.5,82,60,43,30.72,30.56,8,4,12,0.00
2014-11-14,35.3,25.0,12.6,13.7,11.5,8.1,85,59,37,30.58,30.29,8,3,12,0.00
2014-11-15,37.2,31.5,24.2,24.1,19.4,13.2,77,61,52,30.30,30.07,11,5,16,0.00
2014-11-16,25.8,16.6,6.2,19.6,10.7,2.6,89,78,61,30.34,30.19,10,4,13,0.00
2014-11-17,28.6,18.1,5.1,13.4,8.1,1.1,84,66,47,30.46,30.34,10,4,15,0.00
2014-11-18,36.8,20.6,-1.5,29.8,14.9,-5.4,88,79,67,30.45,30.07,10,4,12,0.00
2014-11-19,47.4,36.1,24.0,29.4,24.4,17.4,84,64,44,30.23,30.06,9,3,13,0.00
2014-11-20,48.9,32.9,19.4,28.4,22.5,15.1,85,67,44,30.23,30.13,9,3,12,0.00
2014-11-21,41.8,32.5,26.7,40.2,28.2,21.7,95,84,72,30.21,30.06,6,2,6,0.00
2014-11-22,41.7,41.0,40.4,40.4,39.7,38.8,95,95,94,30.08,30.03,3,1,5,0.00
2014-11-30,21.1,20.5,19.8,5.5,5.1,4.6,51,51,49,30.50,30.42,8,7,15,0.00
2014-12-1,30.5,20.3,11.5,4.6,2.0,-0.7,70,46,27,30.74,30.50,8,4,13,0.00
2014-12-2,42.6,26.4,11.0,15.1,10.8,2.8,76,54,30,30.52,30.11,14,5,18,0.00
2014-12-3,45.9,33.7,19.3,20.9,17.1,13.1,82,53,29,30.40,30.19,12,4,17,0.00
2014-12-4,51.4,41.9,36.4,41.0,31.8,20.8,86,67,52,30.23,30.04,7,3,8,0.01
2014-12-5,41.1,40.5,40.1,38.7,38.3,37.7,92,92,91,30.21,30.19,0,0,0,0.54
2014-12-6,39.0,36.6,31.6,37.4,34.6,29.1,94,92,88,30.57,30.39,6,2,7,0.00
2014-12-7,41.7,38.3,37.5,40.3,36.8,35.9,95,94,94,30.50,30.26,8,5,9,0.02
2014-12-8,56.0,43.8,31.9,40.6,35.3,30.6,96,74,48,30.36,30.27,5,1,6,0.00
2014-12-9,44.2,35.2,27.3,32.4,29.2,24.8,91,79,62,30.46,30.30,6,2,8,0.00
2014-12-10,43.0,38.1,30.0,38.0,34.2,27.4,93,86,78,30.31,30.18,5,1,7,0.00
2014-12-11,45.6,40.6,36.0,41.9,38.2,34.2,95,91,86,30.26,30.18,4,1,5,0.00
2014-12-12,51.7,47.0,44.8,48.7,44.3,41.5,94,90,87,30.27,30.17,7,3,12,0.00
2014-12-15,51.5,38.4,31.7,48.1,33.3,24.8,92,82,73,30.13,29.50,16,11,23,0.00
2014-12-16,38.0,30.8,26.2,27.9,24.6,22.3,87,78,64,30.40,30.13,12,5,17,0.00
2014-12-17,31.1,28.0,24.7,27.4,24.9,21.4,93,88,83,30.39,30.20,9,5,11,0.00
2014-12-18,33.1,29.5,28.2,31.6,27.8,26.4,94,93,92,30.32,30.20,8,1,9,0.17
2014-12-19,35.6,31.6,28.2,34.0,30.1,26.7,94,94,93,30.33,30.20,5,2,8,0.02
2014-12-20,48.1,39.2,31.1,42.7,36.2,29.6,95,89,76,30.21,30.08,12,8,16,0.01
2014-12-21,40.6,39.8,38.7,37.8,37.3,36.0,92,91,89,30.08,30.01,9,7,10,0.00
2014-12-22,51.0,44.3,34.9,44.5,38.1,29.8,96,79,62,29.64,29.52,11,4,12,0.00
2014-12-23,37.3,34.7,31.2,33.5,30.9,27.7,93,86,75,29.99,29.65,11,6,16,0.04
2014-12-24,41.4,32.9,28.9,34.1,28.6,24.7,93,84,64,30.01,29.81,8,4,13,0.00
2014-12-25,53.5,43.0,30.5,34.3,30.3,25.5,82,62,46,29.81,29.60,24,14,30,0.00
2014-12-26,44.5,33.8,30.6,32.6,30.4,27.5,92,88,62,30.17,29.75,10,4,11,0.00
2014-12-27,33.0,25.6,15.3,27.7,19.6,12.7,90,78,61,30.40,30.18,8,4,17,0.00
2014-12-28,41.4,25.1,11.9,27.6,18.3,9.4,92,77,49,30.35,30.15,8,2,12,0.00
2014-12-29,39.9,28.1,15.7,28.0,21.7,13.1,92,78,54,30.55,30.21,8,3,10,0.00
2014-12-30,23.8,12.4,5.2,20.2,6.9,-2.0,87,79,63,30.88,30.55,7,4,11,0.00
2014-12-31,15.3,10.6,4.6,10.3,3.4,-2.2,82,72,62,30.88,30.48,7,3,9,0.00
2015-1-1,29.2,24.0,14.5,25.6,19.3,10.2,89,82,75,30.49,30.23,8,4,11,0.00
2015-1-2,35.9,31.3,26.1,31.2,28.1,23.9,93,88,80,30.28,30.03,7,3,8,0.00